sensor_id;sensor_type;location;lat;lon;timestamp;pressure;altitude;pressure_sealevel;temperature;humidity
28008;BME280;15333;50.010;20.020;2023-08-24T00:00:16;99040.66;;;17.18;100.00
28008;BME280;15333;50.010;20.020;2023-08-24T00:03:37;99046.09;;;17.09;100.00
28008;BME280;15333;50.010;20.020;2023-08-24T00:06:38;99047.91;;;16.91;100.00
28008;BME280;15333;50.010;20.020;2023-08-24T00:09:39;99047.00;;;17.00;100.00
28008;BME280;15333;50.010;20.020;2023-08-24T00:12:40;99043.03;;;16.94;100.00
28008;BME280;15333;50.010;20.020;2023-08-24T00:15:41;99047.97;;;16.71;100.00
28008;BME280;15333;50.010;20.020;2023-08-24T00:18:42;99047.69;;;16.74;100.00
28008;BME280;15333;50.010;20.020;2023-08-24T00:21:43;99046.59;;;16.67;100.00
28008;BME280;15333;50.010;20.020;2023-08-24T00:24:44;99041.78;;;16.61;100.00
28008;BME280;15333;50.010;20.020;2023-08-24T00:27:45;99047.75;;;16.45;100.00
28008;BME280;15333;50.010;20.020;2023-08-24T00:30:46;99045.50;;;16.41;100.00
28008;BME280;15333;50.010;20.020;2023-08-24T00:33:47;99046.19;;;16.53;100.00
28008;BME280;15333;50.010;20.020;2023-08-24T00:36:48;99044.47;;;16.61;100.00
28008;BME280;15333;50.010;20.020;2023-08-24T00:39:49;99046.31;;;16.51;100.00
28008;BME280;15333;50.010;20.020;2023-08-24T00:42:50;99041.22;;;16.48;100.00
28008;BME280;15333;50.010;20.020;2023-08-24T00:45:53;99046.38;;;16.32;100.00
28008;BME280;15333;50.010;20.020;2023-08-24T00:48:56;99045.78;;;16.38;100.00
28008;BME280;15333;50.010;20.020;2023-08-24T00:52:00;99045.19;;;16.44;100.00
28008;BME280;15333;50.010;20.020;2023-08-24T00:55:01;99043.47;;;16.53;100.00
28008;BME280;15333;50.010;20.020;2023-08-24T00:58:03;99043.47;;;16.53;100.00
28008;BME280;15333;50.010;20.020;2023-08-24T01:01:04;99047.75;;;16.45;100.00
28008;BME280;15333;50.010;20.020;2023-08-24T01:04:05;99056.31;;;16.41;100.00
28008;BME280;15333;50.010;20.020;2023-08-24T01:07:08;99050.66;;;16.25;100.00
28008;BME280;15333;50.010;20.020;2023-08-24T01:10:10;99052.97;;;16.10;100.00
28008;BME280;15333;50.010;20.020;2023-08-24T01:13:17;99050.94;;;16.22;100.00
28008;BME280;15333;50.010;20.020;2023-08-24T01:16:26;99049.81;;;16.15;100.00
28008;BME280;15333;50.010;20.020;2023-08-24T01:19:40;99048.13;;;16.04;100.00
28008;BME280;15333;50.010;20.020;2023-08-24T01:22:56;99045.72;;;16.01;100.00
28008;BME280;15333;50.010;20.020;2023-08-24T01:26:06;99045.56;;;15.93;100.00
28008;BME280;15333;50.010;20.020;2023-08-24T01:29:09;99047.25;;;16.23;100.00
28008;BME280;15333;50.010;20.020;2023-08-24T01:32:10;99044.84;;;16.00;100.00
28008;BME280;15333;50.010;20.020;2023-08-24T01:35:12;99047.31;;;15.84;100.00
28008;BME280;15333;50.010;20.020;2023-08-24T01:38:13;99042.75;;;15.75;100.00
28008;BME280;15333;50.010;20.020;2023-08-24T01:41:20;99044.72;;;15.92;100.00
28008;BME280;15333;50.010;20.020;2023-08-24T01:44:24;99044.72;;;15.92;100.00
28008;BME280;15333;50.010;20.020;2023-08-24T01:47:28;99039.31;;;16.02;100.00
28008;BME280;15333;50.010;20.020;2023-08-24T01:50:31;99043.56;;;16.24;100.00
28008;BME280;15333;50.010;20.020;2023-08-24T01:53:32;99041.59;;;15.97;100.00
28008;BME280;15333;50.010;20.020;2023-08-24T01:56:33;99035.63;;;15.93;100.00
28008;BME280;15333;50.010;20.020;2023-08-24T01:59:35;99031.66;;;15.97;100.00
28008;BME280;15333;50.010;20.020;2023-08-24T02:02:36;99032.06;;;15.93;100.00
28008;BME280;15333;50.010;20.020;2023-08-24T02:05:37;99034.50;;;15.86;100.00
28008;BME280;15333;50.010;20.020;2023-08-24T02:08:38;99035.34;;;15.96;100.00
28008;BME280;15333;50.010;20.020;2023-08-24T02:11:39;99039.34;;;15.73;100.00
28008;BME280;15333;50.010;20.020;2023-08-24T02:14:40;99033.09;;;15.63;100.00
28008;BME280;15333;50.010;20.020;2023-08-24T02:17:41;99037.22;;;15.67;100.00
28008;BME280;15333;50.010;20.020;2023-08-24T02:20:42;99042.03;;;15.83;100.00
28008;BME280;15333;50.010;20.020;2023-08-24T02:23:43;99034.94;;;15.91;100.00
28008;BME280;15333;50.010;20.020;2023-08-24T02:26:43;99027.97;;;15.98;100.00
28008;BME280;15333;50.010;20.020;2023-08-24T02:29:44;99036.03;;;16.18;100.00
28008;BME280;15333;50.010;20.020;2023-08-24T02:32:49;99039.31;;;15.92;100.00
28008;BME280;15333;50.010;20.020;2023-08-24T02:35:50;99033.38;;;15.89;100.00
28008;BME280;15333;50.010;20.020;2023-08-24T02:38:51;99042.75;;;15.75;100.00
28008;BME280;15333;50.010;20.020;2023-08-24T02:41:53;99043.59;;;15.66;100.00
28008;BME280;15333;50.010;20.020;2023-08-24T02:44:54;99039.31;;;15.63;100.00
28008;BME280;15333;50.010;20.020;2023-08-24T02:47:55;99046.59;;;15.53;100.00
28008;BME280;15333;50.010;20.020;2023-08-24T02:51:00;99046.81;;;15.50;100.00
28008;BME280;15333;50.010;20.020;2023-08-24T02:54:04;99049.56;;;15.79;100.00
28008;BME280;15333;50.010;20.020;2023-08-24T02:57:05;99039.91;;;15.86;100.00
28008;BME280;15333;50.010;20.020;2023-08-24T03:00:06;99034.63;;;15.94;100.00
28008;BME280;15333;50.010;20.020;2023-08-24T03:03:07;99028.53;;;16.02;100.00
28008;BME280;15333;50.010;20.020;2023-08-24T03:06:08;99035.34;;;15.87;100.00
28008;BME280;15333;50.010;20.020;2023-08-24T03:09:10;99044.03;;;15.71;100.00
28008;BME280;15333;50.010;20.020;2023-08-24T03:12:11;99035.91;;;15.52;100.00
28008;BME280;15333;50.010;20.020;2023-08-24T03:15:13;99043.25;;;15.50;100.00
28008;BME280;15333;50.010;20.020;2023-08-24T03:18:15;99043.03;;;15.72;100.00
28008;BME280;15333;50.010;20.020;2023-08-24T03:21:16;99039.47;;;15.81;100.00
28008;BME280;15333;50.010;20.020;2023-08-24T03:24:17;99038.19;;;15.85;100.00
28008;BME280;15333;50.010;20.020;2023-08-24T03:27:18;99033.94;;;15.73;100.00
28008;BME280;15333;50.010;20.020;2023-08-24T03:30:19;99041.47;;;15.60;100.00
28008;BME280;15333;50.010;20.020;2023-08-24T03:33:21;99045.72;;;15.72;100.00
28008;BME280;15333;50.010;20.020;2023-08-24T03:36:22;99053.56;;;15.75;100.00
28008;BME280;15333;50.010;20.020;2023-08-24T03:39:23;99055.81;;;15.60;100.00
28008;BME280;15333;50.010;20.020;2023-08-24T03:42:24;99059.94;;;15.55;100.00
28008;BME280;15333;50.010;20.020;2023-08-24T03:45:25;99061.16;;;15.51;100.00
28008;BME280;15333;50.010;20.020;2023-08-24T03:48:26;99058.38;;;15.62;100.00
28008;BME280;15333;50.010;20.020;2023-08-24T03:51:27;99062.50;;;15.66;100.00
28008;BME280;15333;50.010;20.020;2023-08-24T03:54:28;99062.06;;;15.80;100.00
28008;BME280;15333;50.010;20.020;2023-08-24T03:57:30;99054.09;;;16.08;100.00
28008;BME280;15333;50.010;20.020;2023-08-24T04:00:31;99050.53;;;16.07;100.00
28008;BME280;15333;50.010;20.020;2023-08-24T04:03:34;99051.53;;;16.06;100.00
28008;BME280;15333;50.010;20.020;2023-08-24T04:06:35;99052.19;;;16.37;100.00
28008;BME280;15333;50.010;20.020;2023-08-24T04:09:36;99039.09;;;16.89;100.00
28008;BME280;15333;50.010;20.020;2023-08-24T04:12:37;99034.78;;;16.96;100.00
28008;BME280;15333;50.010;20.020;2023-08-24T04:15:38;99041.06;;;16.96;100.00
28008;BME280;15333;50.010;20.020;2023-08-24T04:18:40;99042.44;;;17.00;100.00
28008;BME280;15333;50.010;20.020;2023-08-24T04:21:41;99048.28;;;16.59;100.00
28008;BME280;15333;50.010;20.020;2023-08-24T04:24:42;99055.75;;;16.37;100.00
28008;BME280;15333;50.010;20.020;2023-08-24T04:27:43;99049.41;;;16.75;100.00
28008;BME280;15333;50.010;20.020;2023-08-24T04:30:51;99052.72;;;17.24;100.00
28008;BME280;15333;50.010;20.020;2023-08-24T04:33:51;99043.63;;;18.14;100.00
28008;BME280;15333;50.010;20.020;2023-08-24T04:36:52;99039.78;;;18.68;100.00
28008;BME280;15333;50.010;20.020;2023-08-24T04:39:55;99051.59;;;19.35;100.00
28008;BME280;15333;50.010;20.020;2023-08-24T04:42:56;99041.50;;;19.61;100.00
28008;BME280;15333;50.010;20.020;2023-08-24T04:45:56;99044.94;;;19.79;100.00
28008;BME280;15333;50.010;20.020;2023-08-24T04:48:58;99037.59;;;19.55;100.00
28008;BME280;15333;50.010;20.020;2023-08-24T04:51:58;99036.50;;;19.40;100.00
28008;BME280;15333;50.010;20.020;2023-08-24T04:54:59;99034.75;;;20.06;100.00
28008;BME280;15333;50.010;20.020;2023-08-24T04:58:00;99036.72;;;20.77;100.00
28008;BME280;15333;50.010;20.020;2023-08-24T05:01:01;99039.25;;;20.86;100.00
28008;BME280;15333;50.010;20.020;2023-08-24T05:04:02;99042.78;;;21.03;99.38
28008;BME280;15333;50.010;20.020;2023-08-24T05:07:03;99042.94;;;21.40;96.48
28008;BME280;15333;50.010;20.020;2023-08-24T05:10:04;99046.59;;;21.56;97.01
28008;BME280;15333;50.010;20.020;2023-08-24T05:13:06;99049.97;;;20.80;97.09
28008;BME280;15333;50.010;20.020;2023-08-24T05:16:06;99044.72;;;21.25;99.06
28008;BME280;15333;50.010;20.020;2023-08-24T05:19:08;99041.31;;;21.85;94.34
28008;BME280;15333;50.010;20.020;2023-08-24T05:22:09;99048.94;;;21.67;92.84
28008;BME280;15333;50.010;20.020;2023-08-24T05:25:10;99048.44;;;22.32;89.42
28008;BME280;15333;50.010;20.020;2023-08-24T05:28:10;99050.13;;;22.33;88.55
28008;BME280;15333;50.010;20.020;2023-08-24T05:31:12;99055.97;;;21.14;94.25
28008;BME280;15333;50.010;20.020;2023-08-24T05:34:12;99063.63;;;20.23;100.00
28008;BME280;15333;50.010;20.020;2023-08-24T05:37:13;99065.34;;;20.08;100.00
28008;BME280;15333;50.010;20.020;2023-08-24T05:40:14;99058.19;;;19.74;100.00
28008;BME280;15333;50.010;20.020;2023-08-24T05:43:15;99054.72;;;19.56;100.00
28008;BME280;15333;50.010;20.020;2023-08-24T05:46:16;99054.09;;;19.70;100.00
28008;BME280;15333;50.010;20.020;2023-08-24T05:49:17;99059.81;;;19.51;100.00
28008;BME280;15333;50.010;20.020;2023-08-24T05:52:18;99060.91;;;19.74;100.00
28008;BME280;15333;50.010;20.020;2023-08-24T05:55:19;99066.19;;;19.42;100.00
28008;BME280;15333;50.010;20.020;2023-08-24T05:58:20;99056.03;;;19.44;100.00
28008;BME280;15333;50.010;20.020;2023-08-24T06:01:21;99052.72;;;19.58;100.00
28008;BME280;15333;50.010;20.020;2023-08-24T06:04:22;99053.06;;;19.71;100.00
28008;BME280;15333;50.010;20.020;2023-08-24T06:07:23;99061.53;;;19.60;100.00
28008;BME280;15333;50.010;20.020;2023-08-24T06:10:24;99065.28;;;19.75;100.00
28008;BME280;15333;50.010;20.020;2023-08-24T06:13:27;99061.06;;;20.13;100.00
28008;BME280;15333;50.010;20.020;2023-08-24T06:16:28;99061.59;;;20.33;100.00
28008;BME280;15333;50.010;20.020;2023-08-24T06:19:29;99053.44;;;20.09;100.00
28008;BME280;15333;50.010;20.020;2023-08-24T06:22:30;99058.88;;;20.33;100.00
28008;BME280;15333;50.010;20.020;2023-08-24T06:25:31;99058.38;;;20.13;100.00
28008;BME280;15333;50.010;20.020;2023-08-24T06:28:32;99069.06;;;19.99;100.00
28008;BME280;15333;50.010;20.020;2023-08-24T06:31:33;99059.53;;;20.11;100.00
28008;BME280;15333;50.010;20.020;2023-08-24T06:34:34;99058.19;;;20.23;100.00
28008;BME280;15333;50.010;20.020;2023-08-24T06:37:34;99057.88;;;20.02;100.00
28008;BME280;15333;50.010;20.020;2023-08-24T06:40:35;99050.91;;;20.31;100.00
28008;BME280;15333;50.010;20.020;2023-08-24T06:43:36;99050.41;;;20.44;100.00
28008;BME280;15333;50.010;20.020;2023-08-24T06:46:39;99054.47;;;20.40;100.00
28008;BME280;15333;50.010;20.020;2023-08-24T06:49:41;99057.72;;;20.36;100.00
28008;BME280;15333;50.010;20.020;2023-08-24T06:52:42;99064.47;;;20.07;100.00
28008;BME280;15333;50.010;20.020;2023-08-24T06:55:43;99070.09;;;20.46;100.00
28008;BME280;15333;50.010;20.020;2023-08-24T06:58:44;99064.47;;;20.40;100.00
28008;BME280;15333;50.010;20.020;2023-08-24T07:01:45;99071.28;;;20.60;100.00
28008;BME280;15333;50.010;20.020;2023-08-24T07:04:48;99065.63;;;20.78;100.00
28008;BME280;15333;50.010;20.020;2023-08-24T07:07:49;99065.94;;;20.83;97.45
28008;BME280;15333;50.010;20.020;2023-08-24T07:10:50;99067.94;;;20.97;96.92
28008;BME280;15333;50.010;20.020;2023-08-24T07:13:51;99072.03;;;20.93;95.41
28008;BME280;15333;50.010;20.020;2023-08-24T07:16:54;99067.16;;;21.35;95.47
28008;BME280;15333;50.010;20.020;2023-08-24T07:19:55;99067.41;;;21.48;95.85
28008;BME280;15333;50.010;20.020;2023-08-24T07:22:56;99073.56;;;21.42;95.90
28008;BME280;15333;50.010;20.020;2023-08-24T07:25:58;99083.47;;;21.35;93.73
28008;BME280;15333;50.010;20.020;2023-08-24T07:28:59;99075.34;;;21.27;88.16
28008;BME280;15333;50.010;20.020;2023-08-24T07:32:00;99073.31;;;21.13;88.95
28008;BME280;15333;50.010;20.020;2023-08-24T07:35:01;99079.38;;;21.39;87.77
28008;BME280;15333;50.010;20.020;2023-08-24T07:38:02;99073.13;;;21.62;86.04
28008;BME280;15333;50.010;20.020;2023-08-24T07:41:05;99071.41;;;21.61;84.34
28008;BME280;15333;50.010;20.020;2023-08-24T07:44:07;99072.78;;;21.65;86.68
28008;BME280;15333;50.010;20.020;2023-08-24T07:47:08;99068.06;;;21.59;85.81
28008;BME280;15333;50.010;20.020;2023-08-24T07:50:10;99067.81;;;21.91;84.98
28008;BME280;15333;50.010;20.020;2023-08-24T07:53:11;99069.69;;;21.91;82.31
28008;BME280;15333;50.010;20.020;2023-08-24T07:56:12;99070.66;;;22.06;82.20
28008;BME280;15333;50.010;20.020;2023-08-24T07:59:13;99070.81;;;22.04;81.83
28008;BME280;15333;50.010;20.020;2023-08-24T08:02:14;99067.34;;;21.87;81.01
28008;BME280;15333;50.010;20.020;2023-08-24T08:05:16;99062.69;;;21.96;79.23
28008;BME280;15333;50.010;20.020;2023-08-24T08:08:17;99066.00;;;21.83;78.44
28008;BME280;15333;50.010;20.020;2023-08-24T08:11:18;99069.78;;;22.05;78.06
28008;BME280;15333;50.010;20.020;2023-08-24T08:14:20;99063.69;;;22.41;78.85
28008;BME280;15333;50.010;20.020;2023-08-24T08:17:20;99075.09;;;22.44;79.33
28008;BME280;15333;50.010;20.020;2023-08-24T08:20:21;99068.81;;;22.44;78.05
28008;BME280;15333;50.010;20.020;2023-08-24T08:23:22;99072.25;;;22.75;77.36
28008;BME280;15333;50.010;20.020;2023-08-24T08:26:23;99072.25;;;22.75;76.34
28008;BME280;15333;50.010;20.020;2023-08-24T08:29:24;99060.00;;;22.71;76.10
28008;BME280;15333;50.010;20.020;2023-08-24T08:32:25;99069.56;;;22.67;76.03
28008;BME280;15333;50.010;20.020;2023-08-24T08:35:27;99063.03;;;22.76;76.68
28008;BME280;15333;50.010;20.020;2023-08-24T08:38:28;99062.38;;;22.89;75.77
28008;BME280;15333;50.010;20.020;2023-08-24T08:41:34;99059.56;;;22.82;76.85
28008;BME280;15333;50.010;20.020;2023-08-24T08:44:39;99068.50;;;23.06;76.26
28008;BME280;15333;50.010;20.020;2023-08-24T08:47:41;99057.09;;;23.31;73.13
28008;BME280;15333;50.010;20.020;2023-08-24T08:50:42;99065.19;;;23.54;72.51
28008;BME280;15333;50.010;20.020;2023-08-24T08:53:43;99061.50;;;23.47;71.96
28008;BME280;15333;50.010;20.020;2023-08-24T08:56:44;99053.41;;;23.54;71.29
28008;BME280;15333;50.010;20.020;2023-08-24T08:59:45;99065.00;;;23.56;69.59
28008;BME280;15333;50.010;20.020;2023-08-24T09:02:48;99058.47;;;23.71;71.46
28008;BME280;15333;50.010;20.020;2023-08-24T09:05:51;99060.47;;;23.63;69.34
28008;BME280;15333;50.010;20.020;2023-08-24T09:08:53;99061.22;;;23.93;68.62
28008;BME280;15333;50.010;20.020;2023-08-24T09:11:54;99060.56;;;23.91;67.08
28008;BME280;15333;50.010;20.020;2023-08-24T09:14:55;99054.56;;;24.02;67.37
28008;BME280;15333;50.010;20.020;2023-08-24T09:17:56;99052.50;;;24.25;66.77
28008;BME280;15333;50.010;20.020;2023-08-24T09:20:57;99044.75;;;24.29;64.95
28008;BME280;15333;50.010;20.020;2023-08-24T09:23:57;99040.75;;;24.10;63.83
28008;BME280;15333;50.010;20.020;2023-08-24T09:27:20;99048.72;;;24.05;62.89
28008;BME280;15333;50.010;20.020;2023-08-24T09:30:20;99035.28;;;24.10;62.50
28008;BME280;15333;50.010;20.020;2023-08-24T09:33:21;99033.47;;;24.17;62.31
28008;BME280;15333;50.010;20.020;2023-08-24T09:36:26;99036.69;;;24.21;60.15
28008;BME280;15333;50.010;20.020;2023-08-24T09:39:27;99042.72;;;24.37;60.25
28008;BME280;15333;50.010;20.020;2023-08-24T09:42:28;99042.47;;;24.60;61.68
28008;BME280;15333;50.010;20.020;2023-08-24T09:45:29;99039.13;;;24.58;58.20
28008;BME280;15333;50.010;20.020;2023-08-24T09:48:30;99037.69;;;24.41;59.86
28008;BME280;15333;50.010;20.020;2023-08-24T09:51:33;99034.91;;;24.62;59.85
28008;BME280;15333;50.010;20.020;2023-08-24T09:54:38;99030.78;;;25.01;58.63
28008;BME280;15333;50.010;20.020;2023-08-24T09:57:39;99031.09;;;25.25;57.78
28008;BME280;15333;50.010;20.020;2023-08-24T10:00:41;99038.69;;;25.23;57.05
28008;BME280;15333;50.010;20.020;2023-08-24T10:03:44;99034.13;;;25.44;52.41
28008;BME280;15333;50.010;20.020;2023-08-24T10:06:47;99036.97;;;25.22;54.68
28008;BME280;15333;50.010;20.020;2023-08-24T10:09:58;99036.25;;;25.42;52.35
28008;BME280;15333;50.010;20.020;2023-08-24T10:13:06;99037.97;;;25.56;54.21
28008;BME280;15333;50.010;20.020;2023-08-24T10:16:12;99040.47;;;25.51;52.99
28008;BME280;15333;50.010;20.020;2023-08-24T10:19:13;99038.69;;;25.23;53.52
28008;BME280;15333;50.010;20.020;2023-08-24T10:22:14;99038.81;;;25.50;52.06
28008;BME280;15333;50.010;20.020;2023-08-24T10:25:16;99029.19;;;25.67;51.86
28008;BME280;15333;50.010;20.020;2023-08-24T10:28:18;99027.75;;;25.84;49.01
28008;BME280;15333;50.010;20.020;2023-08-24T10:31:20;99028.34;;;25.73;50.40
28008;BME280;15333;50.010;20.020;2023-08-24T10:34:22;99019.44;;;25.58;50.44
28008;BME280;15333;50.010;20.020;2023-08-24T10:37:27;99012.72;;;25.60;48.95
28008;BME280;15333;50.010;20.020;2023-08-24T10:40:35;99009.78;;;25.62;49.34
28008;BME280;15333;50.010;20.020;2023-08-24T10:43:49;99010.50;;;25.36;48.30
28008;BME280;15333;50.010;20.020;2023-08-24T10:50:17;98999.69;;;25.82;47.30
28008;BME280;15333;50.010;20.020;2023-08-24T10:53:37;98997.88;;;26.29;46.96
28008;BME280;15333;50.010;20.020;2023-08-24T10:56:39;99000.16;;;26.12;46.30
28008;BME280;15333;50.010;20.020;2023-08-24T10:59:40;98995.50;;;25.99;46.76
28008;BME280;15333;50.010;20.020;2023-08-24T11:02:45;98991.75;;;26.27;45.60
28008;BME280;15333;50.010;20.020;2023-08-24T11:05:51;98990.88;;;26.20;45.94
28008;BME280;15333;50.010;20.020;2023-08-24T11:09:10;98995.53;;;26.39;46.09
28008;BME280;15333;50.010;20.020;2023-08-24T11:12:15;98981.16;;;26.63;46.26
28008;BME280;15333;50.010;20.020;2023-08-24T11:18:45;98982.41;;;26.54;44.08
28008;BME280;15333;50.010;20.020;2023-08-24T11:21:46;98969.50;;;26.68;44.45
28008;BME280;15333;50.010;20.020;2023-08-24T11:24:47;98975.63;;;26.89;43.92
28008;BME280;15333;50.010;20.020;2023-08-24T11:27:48;98977.69;;;26.87;43.48
28008;BME280;15333;50.010;20.020;2023-08-24T11:30:50;98966.31;;;26.91;43.77
28008;BME280;15333;50.010;20.020;2023-08-24T11:33:56;98975.13;;;27.12;44.97
28008;BME280;15333;50.010;20.020;2023-08-24T11:36:57;98980.06;;;26.77;45.01
28008;BME280;15333;50.010;20.020;2023-08-24T11:39:58;98972.22;;;26.81;43.41
28008;BME280;15333;50.010;20.020;2023-08-24T11:42:59;98962.41;;;27.18;43.58
28008;BME280;15333;50.010;20.020;2023-08-24T11:46:00;98963.41;;;27.30;43.12
28008;BME280;15333;50.010;20.020;2023-08-24T11:49:04;98957.25;;;27.73;43.03
28008;BME280;15333;50.010;20.020;2023-08-24T11:52:05;98950.84;;;28.10;42.42
28008;BME280;15333;50.010;20.020;2023-08-24T11:55:06;98947.84;;;27.87;43.29
28008;BME280;15333;50.010;20.020;2023-08-24T11:58:16;98957.34;;;27.91;43.79
28008;BME280;15333;50.010;20.020;2023-08-24T12:01:17;98947.41;;;27.58;43.84
28008;BME280;15333;50.010;20.020;2023-08-24T12:04:18;98945.16;;;27.80;43.93
28008;BME280;15333;50.010;20.020;2023-08-24T12:07:20;98952.06;;;27.51;43.82
28008;BME280;15333;50.010;20.020;2023-08-24T12:10:21;98950.88;;;27.41;43.77
28008;BME280;15333;50.010;20.020;2023-08-24T12:13:23;98945.72;;;27.57;43.78
28008;BME280;15333;50.010;20.020;2023-08-24T12:16:24;98944.28;;;27.55;43.52
28008;BME280;15333;50.010;20.020;2023-08-24T12:19:25;98942.38;;;27.55;43.90
28008;BME280;15333;50.010;20.020;2023-08-24T12:22:26;98931.44;;;26.84;44.16
28008;BME280;15333;50.010;20.020;2023-08-24T12:25:28;98931.63;;;26.96;44.98
28008;BME280;15333;50.010;20.020;2023-08-24T12:28:29;98931.44;;;26.84;43.49
28008;BME280;15333;50.010;20.020;2023-08-24T12:31:30;98931.22;;;26.99;43.80
28008;BME280;15333;50.010;20.020;2023-08-24T12:34:31;98923.28;;;26.58;45.02
28008;BME280;15333;50.010;20.020;2023-08-24T12:37:32;98917.53;;;26.66;44.47
28008;BME280;15333;50.010;20.020;2023-08-24T12:40:32;98930.81;;;26.82;44.61
28008;BME280;15333;50.010;20.020;2023-08-24T12:43:33;98929.56;;;26.78;44.80
28008;BME280;15333;50.010;20.020;2023-08-24T12:46:34;98920.00;;;26.87;44.42
28008;BME280;15333;50.010;20.020;2023-08-24T12:49:38;98914.16;;;26.77;44.24
28008;BME280;15333;50.010;20.020;2023-08-24T12:52:39;98923.59;;;26.95;43.30
28008;BME280;15333;50.010;20.020;2023-08-24T12:55:40;98917.69;;;26.98;42.78
28008;BME280;15333;50.010;20.020;2023-08-24T12:58:41;98911.59;;;26.82;43.05
28008;BME280;15333;50.010;20.020;2023-08-24T13:01:42;98893.66;;;26.73;43.83
28008;BME280;15333;50.010;20.020;2023-08-24T13:04:43;98904.19;;;26.89;43.97
28008;BME280;15333;50.010;20.020;2023-08-24T13:07:44;98888.09;;;26.86;44.61
28008;BME280;15333;50.010;20.020;2023-08-24T13:10:45;98894.75;;;27.17;44.47
28008;BME280;15333;50.010;20.020;2023-08-24T13:13:46;98892.25;;;27.09;43.51
28008;BME280;15333;50.010;20.020;2023-08-24T13:16:47;98894.41;;;27.07;43.98
28008;BME280;15333;50.010;20.020;2023-08-24T13:19:49;98898.28;;;26.93;43.44
28008;BME280;15333;50.010;20.020;2023-08-24T13:22:50;98894.41;;;27.07;43.76
28008;BME280;15333;50.010;20.020;2023-08-24T13:25:51;98891.31;;;27.28;44.59
28008;BME280;15333;50.010;20.020;2023-08-24T13:28:52;98879.53;;;27.21;43.83
28008;BME280;15333;50.010;20.020;2023-08-24T13:31:53;98885.03;;;27.14;43.55
28008;BME280;15333;50.010;20.020;2023-08-24T13:34:54;98887.56;;;27.16;44.30
28008;BME280;15333;50.010;20.020;2023-08-24T13:37:56;98888.19;;;27.18;44.44
28008;BME280;15333;50.010;20.020;2023-08-24T13:40:57;98876.31;;;26.93;43.93
28008;BME280;15333;50.010;20.020;2023-08-24T13:43:58;98874.63;;;27.23;43.92
28008;BME280;15333;50.010;20.020;2023-08-24T13:46:59;98873.94;;;27.34;43.48
28008;BME280;15333;50.010;20.020;2023-08-24T13:50:00;98873.72;;;26.98;43.53
28008;BME280;15333;50.010;20.020;2023-08-24T13:53:01;98855.47;;;27.10;42.84
28008;BME280;15333;50.010;20.020;2023-08-24T13:56:02;98868.06;;;27.24;43.10
28008;BME280;15333;50.010;20.020;2023-08-24T13:59:03;98868.41;;;27.41;42.86
28008;BME280;15333;50.010;20.020;2023-08-24T14:02:05;98869.56;;;27.58;43.65
28008;BME280;15333;50.010;20.020;2023-08-24T14:05:07;98858.50;;;27.33;43.98
28008;BME280;15333;50.010;20.020;2023-08-24T14:08:10;98856.19;;;27.30;43.35
28008;BME280;15333;50.010;20.020;2023-08-24T14:11:10;98859.66;;;27.19;43.82
28008;BME280;15333;50.010;20.020;2023-08-24T14:14:11;98866.84;;;27.20;43.79
28008;BME280;15333;50.010;20.020;2023-08-24T14:17:12;98848.97;;;27.36;44.10
28008;BME280;15333;50.010;20.020;2023-08-24T14:20:13;98854.53;;;27.60;43.85
28008;BME280;15333;50.010;20.020;2023-08-24T14:23:14;98842.31;;;27.56;43.65
28008;BME280;15333;50.010;20.020;2023-08-24T14:26:16;98846.78;;;27.44;44.11
28008;BME280;15333;50.010;20.020;2023-08-24T14:29:17;98851.19;;;27.52;44.18
28008;BME280;15333;50.010;20.020;2023-08-24T14:32:18;98845.91;;;27.50;44.00
28008;BME280;15333;50.010;20.020;2023-08-24T14:35:19;98846.56;;;27.52;43.63
28008;BME280;15333;50.010;20.020;2023-08-24T14:38:20;98842.47;;;27.61;44.01
28008;BME280;15333;50.010;20.020;2023-08-24T14:41:21;98833.88;;;27.20;43.63
28008;BME280;15333;50.010;20.020;2023-08-24T14:44:22;98831.81;;;27.09;44.43
28008;BME280;15333;50.010;20.020;2023-08-24T14:47:22;98834.47;;;27.22;43.59
28008;BME280;15333;50.010;20.020;2023-08-24T14:50:24;98835.63;;;27.08;44.23
28008;BME280;15333;50.010;20.020;2023-08-24T14:53:26;98831.31;;;26.80;45.10
28008;BME280;15333;50.010;20.020;2023-08-24T14:56:27;98832.78;;;26.89;44.75
28008;BME280;15333;50.010;20.020;2023-08-24T14:59:28;98836.22;;;26.65;45.00
28008;BME280;15333;50.010;20.020;2023-08-24T15:02:29;98829.59;;;26.79;45.32
28008;BME280;15333;50.010;20.020;2023-08-24T15:05:30;98829.91;;;26.58;46.30
28008;BME280;15333;50.010;20.020;2023-08-24T15:08:32;98832.94;;;26.50;46.80
28008;BME280;15333;50.010;20.020;2023-08-24T15:11:33;98835.91;;;26.42;47.19
28008;BME280;15333;50.010;20.020;2023-08-24T15:14:34;98832.97;;;26.24;47.37
28008;BME280;15333;50.010;20.020;2023-08-24T15:17:35;98830.44;;;26.22;47.70
28008;BME280;15333;50.010;20.020;2023-08-24T15:20:37;98829.03;;;26.00;48.71
28008;BME280;15333;50.010;20.020;2023-08-24T15:23:37;98833.88;;;25.98;49.64
28008;BME280;15333;50.010;20.020;2023-08-24T15:26:38;98827.97;;;25.81;50.04
28008;BME280;15333;50.010;20.020;2023-08-24T15:29:39;98820.19;;;25.78;49.85
28008;BME280;15333;50.010;20.020;2023-08-24T15:32:40;98820.41;;;25.70;49.73
28008;BME280;15333;50.010;20.020;2023-08-24T15:35:42;98811.94;;;25.65;48.80
28008;BME280;15333;50.010;20.020;2023-08-24T15:38:43;98814.91;;;25.50;50.82
28008;BME280;15333;50.010;20.020;2023-08-24T15:41:43;98808.53;;;25.36;51.84
28008;BME280;15333;50.010;20.020;2023-08-24T15:44:45;98804.75;;;25.24;52.98
28008;BME280;15333;50.010;20.020;2023-08-24T15:47:45;98811.06;;;25.31;52.34
28008;BME280;15333;50.010;20.020;2023-08-24T15:50:46;98803.28;;;25.48;52.67